Time;durP1;ratioP1;P1;durP2;ratioP2;P2;SDS_P1;SDS_P2;PMS_P1;PMS_P2;Temp;Humidity;BMP_temperature;BMP_pressure;BME280_temperature;BME280_humidity;BME280_pressure;Samples;Min_cycle;Max_cycle;Signal;HPM_P1;HPM_P2
2023/12/31 00:01:15;;;;;;;0.55;0.55;;;7.50;99.90;;;;;;5113359;28;20024;-75
2023/12/31 00:03:41;;;;;;;0.40;0.40;;;7.50;99.90;;;;;;5113717;28;20093;-75
2023/12/31 00:06:07;;;;;;;0.10;0.10;;;7.50;99.90;;;;;;5111138;28;20028;-74
2023/12/31 00:08:33;;;;;;;2.28;2.17;;;7.50;99.90;;;;;;5111174;28;20693;-75
2023/12/31 00:11:00;;;;;;;0.20;0.20;;;7.50;99.90;;;;;;5111567;28;20024;-74
2023/12/31 00:13:30;;;;;;;0.20;0.20;;;7.50;99.90;;;;;;5111912;28;20016;-75
2023/12/31 00:15:56;;;;;;;4.13;3.92;;;7.30;99.90;;;;;;5114040;28;20016;-74
2023/12/31 00:18:31;;;;;;;0.20;0.20;;;7.30;99.90;;;;;;5113302;28;20036;-76
2023/12/31 00:20:57;;;;;;;1.00;1.00;;;7.30;99.90;;;;;;5113976;28;20091;-75
2023/12/31 00:23:26;;;;;;;0.10;0.10;;;7.30;99.90;;;;;;5110601;28;20024;-75
2023/12/31 00:25:56;;;;;;;2.00;1.85;;;7.10;99.90;;;;;;5198719;22;20270;-75
2023/12/31 00:28:21;;;;;;;0.20;0.20;;;7.10;99.90;;;;;;5094166;28;20011;-81
2023/12/31 00:30:47;;;;;;;0.20;0.20;;;7.00;99.90;;;;;;5091858;28;20008;-79
2023/12/31 00:33:13;;;;;;;0.10;0.10;;;7.90;99.90;;;;;;5092991;28;20060;-75
2023/12/31 00:35:41;;;;;;;0.10;0.10;;;6.90;99.90;;;;;;5091740;28;20020;-75
2023/12/31 00:38:12;;;;;;;4.47;4.05;;;6.80;99.90;;;;;;5091664;28;20012;-75
2023/12/31 00:40:38;;;;;;;0.13;0.13;;;6.90;99.90;;;;;;5091770;28;20024;-75
2023/12/31 00:43:04;;;;;;;5.03;4.82;;;6.80;99.90;;;;;;5092037;28;20028;-75
2023/12/31 00:45:30;;;;;;;0.32;0.32;;;6.80;99.90;;;;;;5091432;28;20039;-74
2023/12/31 00:47:56;;;;;;;0.10;0.10;;;6.80;99.90;;;;;;5091258;28;20013;-75
2023/12/31 00:50:21;;;;;;;0.10;0.10;;;6.70;99.90;;;;;;5090794;28;20095;-77
2023/12/31 00:52:47;;;;;;;2.92;2.83;;;6.70;99.90;;;;;;5092882;28;20025;-78
2023/12/31 00:55:14;;;;;;;0.65;0.65;;;6.70;99.90;;;;;;5092123;28;20585;-75
2023/12/31 00:57:46;;;;;;;0.10;0.10;;;8.00;99.90;;;;;;5092428;28;20021;-75
2023/12/31 01:00:22;;;;;;;0.10;0.10;;;6.60;99.90;;;;;;5090513;28;20024;-75
2023/12/31 01:02:58;;;;;;;0.20;0.20;;;6.60;99.90;;;;;;5092132;28;20044;-75
2023/12/31 01:05:30;;;;;;;0.10;0.10;;;7.50;99.90;;;;;;5075309;28;20048;-75
2023/12/31 01:07:56;;;;;;;1.23;1.20;;;6.50;99.90;;;;;;5090888;28;20017;-74
2023/12/31 01:10:24;;;;;;;0.73;0.73;;;6.40;99.90;;;;;;5091556;28;20036;-75
2023/12/31 01:12:49;;;;;;;0.17;0.17;;;6.40;99.90;;;;;;5091842;28;20020;-77
2023/12/31 01:15:18;;;;;;;0.22;0.22;;;6.30;99.90;;;;;;5091768;28;20017;-75
2023/12/31 01:17:51;;;;;;;0.10;0.10;;;6.30;99.90;;;;;;5094523;28;20033;-76
2023/12/31 01:20:17;;;;;;;0.80;0.80;;;6.20;99.90;;;;;;5096358;28;20021;-74
2023/12/31 01:23:05;;;;;;;0.10;0.10;;;6.20;99.90;;;;;;5094318;28;20048;-76
2023/12/31 01:26:10;;;;;;;0.30;0.30;;;6.10;99.90;;;;;;5110309;28;20044;-75
2023/12/31 01:28:39;;;;;;;0.25;0.25;;;6.00;99.90;;;;;;5109351;28;20062;-75
2023/12/31 01:31:08;;;;;;;0.10;0.10;;;6.00;99.90;;;;;;5107916;28;20043;-81
2023/12/31 01:33:38;;;;;;;0.10;0.10;;;5.90;99.90;;;;;;5109901;28;20062;-75
2023/12/31 01:36:24;;;;;;;0.10;0.10;;;5.80;99.90;;;;;;5095551;28;20040;-75
2023/12/31 01:38:59;;;;;;;3.13;3.03;;;5.80;99.90;;;;;;5065271;28;20036;-74
2023/12/31 01:41:26;;;;;;;0.00;0.00;;;5.70;99.90;;;;;;5110757;28;20016;-76
2023/12/31 01:44:02;;;;;;;0.10;0.10;;;5.70;99.90;;;;;;5112418;28;20023;-75
2023/12/31 01:46:47;;;;;;;0.10;0.10;;;5.70;99.90;;;;;;5098910;28;20030;-75
2023/12/31 01:49:16;;;;;;;2.05;1.95;;;5.50;99.90;;;;;;5110265;28;20020;-77
2023/12/31 01:51:44;;;;;;;0.52;0.52;;;5.40;99.90;;;;;;5106946;28;20016;-75
2023/12/31 01:54:10;;;;;;;0.10;0.10;;;5.40;99.90;;;;;;5106979;28;20012;-75
2023/12/31 01:56:38;;;;;;;6.70;6.43;;;5.40;99.90;;;;;;5108899;28;20047;-75
2023/12/31 01:59:06;;;;;;;0.10;0.10;;;5.40;99.90;;;;;;5108549;28;20095;-75
2023/12/31 02:01:37;;;;;;;24.95;20.92;;;5.40;99.90;;;;;;5109761;28;20016;-75
2023/12/31 02:04:07;;;;;;;5.45;4.97;;;5.20;99.90;;;;;;5108185;28;20063;-75
2023/12/31 02:06:33;;;;;;;0.10;0.10;;;5.10;99.90;;;;;;5091018;28;20028;-75
2023/12/31 02:09:02;;;;;;;0.10;0.10;;;5.00;99.90;;;;;;5090093;28;20109;-75
2023/12/31 02:11:28;;;;;;;0.10;0.10;;;5.90;99.90;;;;;;5106158;28;20035;-75
2023/12/31 02:13:54;;;;;;;0.10;0.10;;;4.80;99.90;;;;;;5089417;28;20031;-78
2023/12/31 02:16:21;;;;;;;0.90;0.90;;;4.80;99.90;;;;;;5094994;28;20058;-77
2023/12/31 02:18:48;;;;;;;0.38;0.38;;;4.80;99.90;;;;;;5106282;28;20020;-82
2023/12/31 02:21:14;;;;;;;0.10;0.10;;;4.80;99.90;;;;;;5106506;28;20080;-74
2023/12/31 02:23:43;;;;;;;27.75;22.33;;;4.80;99.90;;;;;;5108149;28;20115;-75
2023/12/31 02:26:16;;;;;;;1.40;1.38;;;4.80;99.90;;;;;;5110006;28;20046;-76
2023/12/31 02:28:46;;;;;;;;;;;4.80;99.90;;;;;;5093750;28;20036;-74
2023/12/31 02:31:12;;;;;;;0.10;0.10;;;;;;;;;;5112243;28;19895;-76
2023/12/31 02:33:38;;;;;;;0.10;0.10;;;4.80;99.90;;;;;;5113906;28;20035;-74
2023/12/31 02:36:04;;;;;;;6.10;5.88;;;4.70;99.90;;;;;;5113929;28;20024;-75
2023/12/31 02:38:34;;;;;;;40.40;36.53;;;4.80;99.90;;;;;;5111497;28;20020;-75
2023/12/31 02:41:08;;;;;;;0.20;0.20;;;4.80;99.90;;;;;;5109956;28;20020;-74
2023/12/31 02:43:34;;;;;;;1.70;1.70;;;4.70;99.90;;;;;;5106979;28;20836;-75
2023/12/31 02:46:00;;;;;;;0.50;0.50;;;4.70;99.90;;;;;;5108189;28;20069;-75
2023/12/31 02:48:35;;;;;;;4.05;3.95;;;4.70;99.90;;;;;;5108109;28;20025;-74
2023/12/31 02:51:07;;;;;;;0.10;0.10;;;4.60;99.90;;;;;;5107850;28;20733;-74
2023/12/31 02:53:35;;;;;;;1.23;1.23;;;4.60;99.90;;;;;;5106475;28;20008;-74
2023/12/31 02:56:04;;;;;;;0.20;0.20;;;4.40;99.90;;;;;;5106721;28;20029;-75
2023/12/31 02:58:30;;;;;;;3.40;3.30;;;4.40;99.90;;;;;;5107348;28;20117;-74
2023/12/31 03:00:56;;;;;;;0.10;0.10;;;4.50;99.90;;;;;;5105275;28;20013;-74
2023/12/31 03:03:22;;;;;;;0.10;0.10;;;4.40;99.90;;;;;;5105289;28;20039;-75
2023/12/31 03:05:52;;;;;;;60.58;56.58;;;4.40;99.90;;;;;;5109373;28;20035;-74
2023/12/31 03:08:21;;;;;;;0.10;0.10;;;4.40;99.90;;;;;;5111576;28;20095;-75
2023/12/31 03:10:47;;;;;;;0.10;0.10;;;4.30;99.90;;;;;;5111205;28;20019;-76
2023/12/31 03:13:13;;;;;;;0.22;0.22;;;4.90;99.90;;;;;;5108933;28;20027;-75
2023/12/31 03:15:40;;;;;;;1.83;1.75;;;4.30;99.90;;;;;;5109796;28;20028;-75
2023/12/31 03:18:06;;;;;;;0.00;0.00;;;4.30;99.90;;;;;;5099013;22;20074;-74
2023/12/31 03:20:42;;;;;;;0.30;0.30;;;4.30;99.90;;;;;;5088830;28;20025;-76
2023/12/31 03:23:10;;;;;;;0.10;0.10;;;4.40;99.90;;;;;;5108323;28;20070;-74
2023/12/31 03:25:39;;;;;;;0.08;0.08;;;4.30;99.90;;;;;;5091435;28;20023;-74
2023/12/31 03:28:13;;;;;;;0.10;0.10;;;4.30;99.90;;;;;;5111423;28;20079;-76
2023/12/31 03:30:43;;;;;;;0.10;0.10;;;4.20;99.90;;;;;;5110182;28;20035;-75
2023/12/31 03:33:14;;;;;;;0.00;0.00;;;4.20;99.90;;;;;;5111750;28;20050;-74
2023/12/31 03:35:53;;;;;;;0.00;0.00;;;4.10;99.90;;;;;;5107188;28;20032;-74
2023/12/31 03:38:22;;;;;;;0.10;0.10;;;4.10;99.90;;;;;;5110535;28;20083;-74
2023/12/31 03:40:49;;;;;;;0.10;0.10;;;;;;;;;;5104345;28;20032;-75
2023/12/31 03:43:19;;;;;;;0.10;0.10;;;4.00;99.90;;;;;;5104901;28;20048;-74
2023/12/31 03:45:51;;;;;;;0.08;0.08;;;4.00;99.90;;;;;;5106007;28;20020;-76
2023/12/31 03:48:20;;;;;;;1.33;1.33;;;;;;;;;;5104159;28;20047;-76
2023/12/31 03:51:14;;;;;;;0.10;0.10;;;4.00;99.90;;;;;;5092867;28;20048;-74
2023/12/31 03:54:05;;;;;;;0.10;0.10;;;3.90;99.90;;;;;;5107212;28;20026;-73
2023/12/31 03:56:38;;;;;;;0.00;0.00;;;3.80;99.90;;;;;;5105745;28;20020;-75
2023/12/31 03:59:04;;;;;;;0.00;0.00;;;5.10;99.90;;;;;;5103847;28;20020;-75
2023/12/31 04:01:31;;;;;;;0.05;0.05;;;3.80;99.90;;;;;;5105911;28;20015;-75
2023/12/31 04:03:58;;;;;;;0.00;0.00;;;;;;;;;;5105922;28;20040;-75
2023/12/31 04:06:24;;;;;;;0.00;0.00;;;3.70;99.90;;;;;;5109854;28;20039;-74
2023/12/31 04:08:50;;;;;;;0.05;0.05;;;1.50;99.90;;;;;;5112581;28;20080;-74
2023/12/31 04:11:17;;;;;;;0.00;0.00;;;3.70;99.90;;;;;;5110458;28;20047;-75
2023/12/31 04:13:47;;;;;;;0.10;0.10;;;3.70;99.90;;;;;;5113357;28;20011;-75
2023/12/31 04:16:22;;;;;;;0.00;0.00;;;;;;;;;;5107423;28;20024;-76
2023/12/31 04:18:53;;;;;;;0.00;0.00;;;3.70;99.90;;;;;;5107111;28;20657;-74
2023/12/31 04:21:31;;;;;;;0.00;0.00;;;3.60;99.90;;;;;;5113969;28;20024;-74
2023/12/31 04:23:57;;;;;;;0.10;0.10;;;3.60;99.90;;;;;;5113927;28;20036;-75
2023/12/31 04:26:24;;;;;;;0.00;0.00;;;3.50;99.90;;;;;;5111938;28;20062;-74
2023/12/31 04:28:53;;;;;;;18.30;16.55;;;3.50;99.90;;;;;;5112180;28;20031;-75
2023/12/31 04:31:19;;;;;;;0.03;0.03;;;3.50;99.90;;;;;;5112261;28;20047;-74
2023/12/31 04:33:46;;;;;;;0.20;0.20;;;3.40;99.90;;;;;;5113925;28;20012;-75
2023/12/31 04:36:14;;;;;;;0.10;0.10;;;3.40;99.90;;;;;;5116011;28;20076;-74
2023/12/31 04:38:40;;;;;;;0.10;0.10;;;3.40;99.90;;;;;;5097259;28;20013;-75
2023/12/31 04:41:06;;;;;;;0.10;0.10;;;3.40;99.90;;;;;;5113789;28;20074;-78
2023/12/31 04:43:31;;;;;;;0.10;0.10;;;3.40;99.90;;;;;;5111939;28;20640;-74
2023/12/31 04:45:57;;;;;;;0.10;0.10;;;3.40;99.90;;;;;;5110981;28;20024;-74
2023/12/31 04:48:23;;;;;;;0.00;0.00;;;3.40;99.90;;;;;;5110331;28;20016;-74
2023/12/31 04:50:50;;;;;;;0.08;0.08;;;3.40;99.90;;;;;;5110216;28;20020;-74
2023/12/31 04:53:20;;;;;;;0.10;0.10;;;3.40;99.90;;;;;;5108733;28;20051;-74
2023/12/31 04:55:46;;;;;;;19.08;6.32;;;3.40;99.90;;;;;;5110799;28;20009;-74
2023/12/31 04:58:12;;;;;;;0.10;0.10;;;3.40;99.90;;;;;;5112216;28;20085;-74
2023/12/31 05:00:39;;;;;;;0.08;0.08;;;3.40;99.90;;;;;;5109276;28;20071;-75
2023/12/31 05:03:05;;;;;;;0.10;0.10;;;3.40;99.90;;;;;;5109771;28;20080;-73
2023/12/31 05:05:31;;;;;;;0.10;0.10;;;3.40;99.90;;;;;;5109428;28;20030;-75
2023/12/31 05:07:57;;;;;;;0.10;0.10;;;;;;;;;;5107966;28;20044;-75
2023/12/31 05:10:23;;;;;;;3.03;2.92;;;;;;;;;;5105507;28;20085;-75
2023/12/31 05:12:59;;;;;;;0.10;0.10;;;3.50;99.90;;;;;;5107788;28;20083;-76
2023/12/31 05:15:25;;;;;;;0.00;0.00;;;3.50;99.90;;;;;;5109202;28;20046;-82
2023/12/31 05:17:56;;;;;;;0.00;0.00;;;3.60;99.90;;;;;;5112334;28;20043;-74
2023/12/31 05:20:28;;;;;;;2.17;2.08;;;3.60;99.90;;;;;;5107490;28;20009;-79
2023/12/31 05:22:58;;;;;;;0.10;0.10;;;3.50;99.90;;;;;;5113209;28;20050;-75
2023/12/31 05:25:25;;;;;;;0.00;0.00;;;3.40;99.90;;;;;;5109133;28;20021;-78
2023/12/31 05:27:54;;;;;;;0.08;0.08;;;4.80;99.90;;;;;;5112796;28;20661;-76
2023/12/31 05:30:20;;;;;;;0.10;0.10;;;3.40;99.90;;;;;;5113291;28;20032;-80
2023/12/31 05:32:51;;;;;;;0.10;0.10;;;3.40;99.90;;;;;;5114198;28;20027;-77
2023/12/31 05:35:18;;;;;;;0.10;0.10;;;3.30;99.90;;;;;;5115703;28;20028;-82
2023/12/31 05:38:12;;;;;;;0.10;0.10;;;3.40;99.90;;;;;;5114147;28;20034;-77
2023/12/31 05:40:38;;;;;;;0.10;0.10;;;3.30;99.90;;;;;;5105762;28;20028;-81
2023/12/31 05:43:12;;;;;;;0.10;0.10;;;3.20;99.90;;;;;;5112958;28;20059;-81
2023/12/31 05:45:39;;;;;;;39.45;16.85;;;3.20;99.90;;;;;;5116203;28;20032;-77
2023/12/31 05:48:05;;;;;;;0.08;0.08;;;3.10;99.90;;;;;;5116140;28;20039;-83
2023/12/31 05:50:31;;;;;;;0.00;0.00;;;3.20;99.90;;;;;;5116963;28;20083;-78
2023/12/31 05:52:57;;;;;;;0.10;0.10;;;3.10;99.90;;;;;;5116394;28;19997;-79
2023/12/31 05:55:23;;;;;;;0.10;0.10;;;3.20;99.90;;;;;;5123680;28;20031;-75
2023/12/31 05:57:49;;;;;;;0.10;0.10;;;3.20;99.90;;;;;;5135017;28;20138;-78
2023/12/31 06:00:15;;;;;;;0.10;0.10;;;3.20;99.90;;;;;;5137873;28;20029;-76
2023/12/31 06:02:41;;;;;;;0.00;0.00;;;3.30;99.90;;;;;;5137531;28;20101;-77
2023/12/31 06:05:07;;;;;;;0.70;0.70;;;0.60;99.90;;;;;;5137706;28;20031;-81
2023/12/31 06:07:34;;;;;;;0.08;0.08;;;3.20;99.90;;;;;;5136216;28;20100;-83
2023/12/31 06:10:05;;;;;;;0.10;0.10;;;3.30;99.90;;;;;;5137314;28;20047;-77
2023/12/31 06:12:31;;;;;;;0.10;0.10;;;3.20;99.90;;;;;;5137335;28;20813;-78
2023/12/31 06:14:59;;;;;;;0.10;0.10;;;3.20;99.90;;;;;;5134602;28;20043;-81
2023/12/31 06:17:47;;;;;;;3.75;3.50;;;3.20;99.90;;;;;;5134513;28;20069;-77
2023/12/31 06:20:19;;;;;;;0.00;0.00;;;3.30;99.90;;;;;;5110479;28;20248;-81
2023/12/31 06:22:45;;;;;;;0.00;0.00;;;3.30;99.90;;;;;;5133709;28;20045;-77
2023/12/31 06:25:11;;;;;;;0.10;0.10;;;3.40;99.90;;;;;;5136446;28;20106;-82
2023/12/31 06:27:38;;;;;;;0.00;0.00;;;3.40;99.90;;;;;;5136571;28;20019;-75
2023/12/31 06:30:04;;;;;;;0.10;0.10;;;3.40;99.90;;;;;;5137117;28;20092;-81
2023/12/31 06:32:30;;;;;;;0.00;0.00;;;3.30;99.90;;;;;;5136066;28;20023;-78
2023/12/31 06:35:03;;;;;;;0.10;0.10;;;3.50;99.90;;;;;;5136494;28;20018;-78
2023/12/31 06:37:48;;;;;;;0.00;0.00;;;3.20;99.90;;;;;;5130522;28;20012;-79
2023/12/31 06:40:23;;;;;;;0.10;0.10;;;3.20;99.90;;;;;;5133969;28;20083;-82
2023/12/31 06:42:59;;;;;;;0.03;0.03;;;3.10;99.90;;;;;;5135857;28;20027;-82
2023/12/31 06:45:32;;;;;;;1.27;1.23;;;3.10;99.90;;;;;;5134181;28;20567;-78
2023/12/31 06:48:24;;;;;;;0.68;0.68;;;3.20;99.90;;;;;;5135775;28;20277;-73
2023/12/31 06:50:51;;;;;;;0.05;0.05;;;3.20;99.90;;;;;;5135760;28;20026;-78
2023/12/31 06:53:39;;;;;;;0.03;0.03;;;3.30;99.90;;;;;;5136238;28;20337;-77
2023/12/31 06:56:09;;;;;;;0.10;0.10;;;3.30;99.90;;;;;;5136955;28;20029;-77
2023/12/31 06:58:39;;;;;;;0.03;0.03;;;3.20;99.90;;;;;;5118106;28;20027;-75
2023/12/31 07:01:05;;;;;;;0.43;0.43;;;3.20;99.90;;;;;;5136884;28;20080;-78
2023/12/31 07:03:31;;;;;;;0.10;0.10;;;3.10;99.90;;;;;;5137562;28;20076;-78
2023/12/31 07:05:57;;;;;;;0.10;0.10;;;3.10;99.90;;;;;;5136985;28;20036;-78
2023/12/31 07:08:23;;;;;;;0.57;0.57;;;3.00;99.90;;;;;;5138215;28;20018;-85
2023/12/31 07:10:52;;;;;;;0.10;0.10;;;3.00;99.90;;;;;;5136331;28;20008;-77
2023/12/31 07:13:27;;;;;;;0.00;0.00;;;3.00;99.90;;;;;;5136930;28;20004;-80
2023/12/31 07:15:57;;;;;;;0.17;0.17;;;3.00;99.90;;;;;;5136908;28;20000;-78
2023/12/31 07:18:23;;;;;;;0.10;0.10;;;3.00;99.90;;;;;;5135604;28;20023;-80
2023/12/31 07:20:49;;;;;;;0.05;0.05;;;3.00;99.90;;;;;;5135996;28;20030;-75
2023/12/31 07:23:15;;;;;;;0.00;0.00;;;3.10;99.90;;;;;;5115795;28;20027;-79
2023/12/31 07:25:41;;;;;;;0.10;0.10;;;3.10;99.90;;;;;;5130643;28;20026;-80
2023/12/31 07:28:13;;;;;;;0.10;0.10;;;3.30;99.90;;;;;;5133146;28;20024;-81
2023/12/31 07:30:47;;;;;;;0.10;0.10;;;3.30;99.90;;;;;;5133417;28;20037;-77
2023/12/31 07:33:20;;;;;;;0.10;0.10;;;3.30;99.90;;;;;;5134090;28;20028;-75
2023/12/31 07:35:47;;;;;;;1.23;1.17;;;;;;;;;;5130642;28;20015;-75
2023/12/31 07:38:13;;;;;;;1.70;1.65;;;3.40;99.90;;;;;;5132110;28;20025;-75
2023/12/31 07:40:39;;;;;;;12.98;12.10;;;3.50;99.90;;;;;;5132435;28;20035;-76
2023/12/31 07:43:04;;;;;;;2.92;2.72;;;3.60;99.90;;;;;;5131448;28;20032;-75
2023/12/31 07:45:31;;;;;;;0.30;0.30;;;3.60;99.90;;;;;;5132035;28;20012;-74
2023/12/31 07:47:57;;;;;;;23.42;21.45;;;3.60;99.90;;;;;;5131381;28;20087;-75
2023/12/31 07:50:23;;;;;;;11.70;10.80;;;3.60;99.90;;;;;;5132067;28;20083;-76
2023/12/31 07:52:50;;;;;;;1.00;0.98;;;3.60;99.90;;;;;;5133311;28;20024;-79
2023/12/31 07:55:37;;;;;;;0.30;0.30;;;3.70;99.90;;;;;;5129125;28;20010;-75
2023/12/31 07:58:24;;;;;;;0.13;0.13;;;;;;;;;;5212336;22;20041;-75
2023/12/31 08:01:10;;;;;;;0.55;0.55;;;3.80;99.90;;;;;;5119926;28;20023;-78
2023/12/31 08:03:42;;;;;;;0.10;0.10;;;3.90;99.90;;;;;;5119358;28;20031;-75
2023/12/31 08:06:19;;;;;;;1.17;1.17;;;3.20;99.90;;;;;;5112981;28;20047;-83
2023/12/31 08:08:45;;;;;;;12.63;7.80;;;3.90;99.90;;;;;;5115822;28;20020;-81
2023/12/31 08:11:20;;;;;;;17.65;16.50;;;4.10;99.90;;;;;;5109466;28;20103;-76
2023/12/31 08:13:49;;;;;;;31.35;29.60;;;4.40;99.90;;;;;;5106979;28;20016;-75
2023/12/31 08:16:15;;;;;;;15.30;6.50;;;4.40;99.90;;;;;;5105432;28;20021;-75
2023/12/31 08:18:49;;;;;;;3.20;3.10;;;4.40;99.90;;;;;;5109353;28;20035;-76
2023/12/31 08:21:21;;;;;;;7.13;6.65;;;4.50;99.90;;;;;;5108129;28;20023;-75
2023/12/31 08:23:47;;;;;;;0.28;0.28;;;4.50;99.90;;;;;;5088025;28;20024;-75
2023/12/31 08:26:13;;;;;;;3.92;3.60;;;4.70;99.90;;;;;;5089376;28;20012;-77
2023/12/31 08:28:42;;;;;;;0.35;0.35;;;4.70;99.90;;;;;;5116881;28;20016;-77
2023/12/31 08:31:23;;;;;;;0.85;0.85;;;4.80;99.90;;;;;;5114784;28;20049;-75
2023/12/31 08:33:56;;;;;;;19.23;17.80;;;4.90;99.90;;;;;;5111736;28;20016;-75
2023/12/31 08:36:22;;;;;;;1.02;0.95;;;4.90;99.90;;;;;;5106380;28;20027;-76
2023/12/31 08:38:49;;;;;;;0.20;0.20;;;5.10;99.90;;;;;;5108717;28;20107;-77
2023/12/31 08:41:23;;;;;;;16.38;15.63;;;5.20;99.90;;;;;;5107792;28;20558;-81
2023/12/31 08:43:52;;;;;;;0.05;0.05;;;5.30;99.90;;;;;;5112162;28;20501;-75
2023/12/31 08:46:21;;;;;;;88.68;81.75;;;5.40;99.90;;;;;;5111117;28;20074;-76
2023/12/31 08:48:53;;;;;;;1.48;1.45;;;5.50;99.90;;;;;;5115547;28;20024;-81
2023/12/31 08:51:26;;;;;;;2.60;2.50;;;5.60;99.90;;;;;;5118748;28;20004;-78
2023/12/31 08:53:52;;;;;;;1.20;1.15;;;5.70;99.90;;;;;;5109257;28;20095;-79
2023/12/31 08:59:28;;;;;;;4.63;4.40;;;7.20;99.90;;;;;;1343012;26;20052;-77
2023/12/31 09:01:57;;;;;;;0.82;0.82;;;7.60;99.90;;;;;;5113463;28;20028;-76
2023/12/31 09:04:23;;;;;;;2.40;2.30;;;7.50;99.90;;;;;;5112274;28;20035;-80
2023/12/31 09:07:04;;;;;;;1.95;1.85;;;7.30;99.90;;;;;;5091556;28;20020;-76
2023/12/31 09:09:30;;;;;;;1.92;1.85;;;6.90;99.90;;;;;;5111808;28;20697;-78
2023/12/31 09:11:56;;;;;;;1.95;1.85;;;6.90;99.90;;;;;;5093894;28;20028;-79
2023/12/31 09:14:32;;;;;;;0.40;0.40;;;6.90;99.90;;;;;;5109542;28;20015;-81
2023/12/31 09:16:58;;;;;;;0.43;0.43;;;7.20;99.90;;;;;;5086896;28;20024;-75
2023/12/31 09:19:44;;;;;;;0.20;0.20;;;7.20;99.90;;;;;;5089824;28;20080;-78
2023/12/31 09:22:10;;;;;;;0.93;0.93;;;7.20;99.90;;;;;;5109134;28;20020;-76
2023/12/31 09:24:38;;;;;;;6.25;5.40;;;7.10;99.90;;;;;;5107158;28;20032;-75
2023/12/31 09:27:07;;;;;;;0.13;0.13;;;7.20;99.90;;;;;;5110208;28;20043;-75
2023/12/31 09:29:40;;;;;;;3.83;2.75;;;7.20;99.90;;;;;;5109447;28;20030;-76
2023/12/31 09:32:29;;;;;;;33.75;31.60;;;7.00;99.90;;;;;;5112973;28;20074;-77
2023/12/31 09:34:58;;;;;;;129.68;116.28;;;7.00;99.90;;;;;;5096887;28;20050;-77
2023/12/31 09:37:24;;;;;;;30.63;28.85;;;7.10;99.90;;;;;;5105853;28;20024;-79
2023/12/31 09:39:54;;;;;;;0.65;0.65;;;7.00;99.90;;;;;;5110248;28;20007;-75
2023/12/31 09:42:53;;;;;;;58.00;27.95;;;7.10;99.90;;;;;;5113079;28;20020;-81
2023/12/31 09:45:22;;;;;;;6.18;5.85;;;7.10;99.90;;;;;;5111008;28;20023;-76
2023/12/31 09:47:53;;;;;;;4.53;4.32;;;7.30;99.90;;;;;;5112614;28;20043;-83
2023/12/31 09:50:22;;;;;;;0.30;0.30;;;7.40;99.90;;;;;;5090212;28;20016;-83
2023/12/31 09:52:50;;;;;;;5.28;5.07;;;7.50;99.90;;;;;;5107586;28;20024;-83
2023/12/31 09:55:19;;;;;;;5.55;5.35;;;7.40;99.90;;;;;;5106480;28;20098;-82
2023/12/31 09:57:56;;;;;;;25.90;23.73;;;7.60;99.90;;;;;;5109269;28;20024;-82
2023/12/31 10:00:29;;;;;;;2.83;2.72;;;7.60;99.90;;;;;;5095259;28;20032;-81
2023/12/31 10:03:03;;;;;;;1.38;1.33;;;7.70;99.90;;;;;;5107235;28;20460;-84
2023/12/31 10:05:30;;;;;;;0.50;0.50;;;7.80;99.90;;;;;;5109719;28;20501;-76
2023/12/31 10:08:03;;;;;;;12.43;11.55;;;7.70;99.90;;;;;;5107564;28;20042;-76
2023/12/31 10:10:34;;;;;;;42.80;38.63;;;7.80;99.90;;;;;;5109744;28;20031;-77
2023/12/31 10:13:01;;;;;;;0.73;0.73;;;7.80;99.90;;;;;;5110252;28;20020;-80
2023/12/31 10:15:33;;;;;;;0.30;0.30;;;7.90;99.90;;;;;;5104192;28;20038;-83
2023/12/31 10:18:04;;;;;;;18.42;17.52;;;7.60;99.90;;;;;;5089904;28;20044;-81
2023/12/31 10:20:37;;;;;;;2.45;2.05;;;8.00;99.90;;;;;;5107325;28;20032;-83
2023/12/31 10:23:08;;;;;;;10.38;9.93;;;8.10;99.90;;;;;;5106447;28;20038;-79
2023/12/31 10:25:37;;;;;;;11.43;6.03;;;8.00;99.90;;;;;;5109361;28;20016;-80
2023/12/31 10:28:07;;;;;;;15.30;13.90;;;7.70;99.90;;;;;;5111139;28;20012;-77
2023/12/31 10:30:33;;;;;;;0.50;0.50;;;8.30;99.90;;;;;;5111962;28;20012;-76
2023/12/31 10:33:15;;;;;;;2.03;1.95;;;8.30;99.90;;;;;;5109380;28;20071;-77
2023/12/31 10:35:41;;;;;;;0.52;0.52;;;;;;;;;;5102263;28;20235;-76
2023/12/31 10:38:11;;;;;;;0.20;0.20;;;8.10;99.90;;;;;;5107963;28;20024;-78
2023/12/31 10:40:41;;;;;;;0.20;0.20;;;8.50;99.90;;;;;;5101513;28;20028;-82
2023/12/31 10:43:08;;;;;;;10.18;9.73;;;8.60;99.90;;;;;;5105061;23;20316;-80
2023/12/31 10:45:38;;;;;;;8.70;8.25;;;8.80;99.90;;;;;;5101842;28;20023;-76
2023/12/31 10:48:06;;;;;;;0.85;0.85;;;9.00;99.90;;;;;;5100734;28;20046;-80
2023/12/31 10:50:37;;;;;;;3.42;2.70;;;9.10;99.90;;;;;;5114485;28;20089;-76
2023/12/31 10:53:07;;;;;;;4.53;4.30;;;9.30;99.90;;;;;;5132889;28;20038;-82
2023/12/31 10:55:42;;;;;;;9.40;8.70;;;9.40;99.90;;;;;;5131527;28;20093;-84
2023/12/31 10:58:13;;;;;;;6.75;6.45;;;9.60;99.90;;;;;;5127479;28;20024;-82
2023/12/31 11:00:44;;;;;;;9.07;8.60;;;9.70;99.90;;;;;;5127943;28;20031;-82
2023/12/31 11:03:15;;;;;;;2.05;1.95;;;9.80;99.90;;;;;;5110736;28;20024;-81
2023/12/31 11:05:46;;;;;;;13.52;12.70;;;10.10;99.90;;;;;;5128140;28;20051;-75
2023/12/31 11:08:21;;;;;;;6.28;6.03;;;10.00;99.90;;;;;;5082510;28;20524;-79
2023/12/31 11:10:47;;;;;;;1.02;1.00;;;10.40;99.90;;;;;;5132056;28;20075;-78
2023/12/31 11:13:24;;;;;;;13.13;8.35;;;10.40;99.90;;;;;;5111534;28;20044;-78
2023/12/31 11:15:56;;;;;;;9.57;9.13;;;10.40;99.90;;;;;;5088502;28;20012;-79
2023/12/31 11:18:40;;;;;;;0.68;0.68;;;10.40;99.90;;;;;;5132996;28;20023;-79
2023/12/31 11:21:24;;;;;;;0.40;0.40;;;10.70;99.90;;;;;;5109224;28;20053;-76
2023/12/31 11:24:14;;;;;;;1.35;1.33;;;8.40;99.90;;;;;;5130264;28;20030;-82
2023/12/31 11:27:06;;;;;;;3.65;3.50;;;11.20;99.90;;;;;;5128507;28;20035;-79
2023/12/31 11:29:35;;;;;;;0.43;0.43;;;11.40;99.90;;;;;;5107317;28;20020;-77
2023/12/31 11:32:05;;;;;;;4.00;3.78;;;11.60;99.90;;;;;;5130118;28;20030;-86
2023/12/31 11:34:49;;;;;;;3.47;3.30;;;11.70;99.90;;;;;;5111572;28;20008;-79
2023/12/31 11:37:17;;;;;;;3.53;3.33;;;11.80;99.90;;;;;;5120111;28;20012;-83
2023/12/31 11:39:47;;;;;;;0.95;0.95;;;11.90;99.90;;;;;;5104550;28;20084;-81
2023/12/31 11:42:13;;;;;;;3.83;3.47;;;12.00;99.90;;;;;;5081596;28;20055;-78
2023/12/31 11:44:53;;;;;;;3.83;3.63;;;12.10;99.90;;;;;;5086507;28;20046;-81
2023/12/31 11:47:27;;;;;;;4.90;4.55;;;12.30;99.90;;;;;;5087221;28;20032;-85
2023/12/31 11:50:14;;;;;;;12.32;11.30;;;12.40;99.90;;;;;;5084791;28;20020;-84
2023/12/31 11:52:41;;;;;;;3.15;2.97;;;12.40;99.90;;;;;;5090622;28;20375;-86
2023/12/31 11:55:12;;;;;;;2.67;2.58;;;12.60;99.90;;;;;;5080869;28;20020;-85
2023/12/31 11:57:38;;;;;;;15.60;7.13;;;12.80;99.90;;;;;;5079881;28;20029;-85
2023/12/31 12:00:08;;;;;;;4.13;3.78;;;12.80;99.90;;;;;;5081067;28;20077;-87
2023/12/31 12:02:34;;;;;;;2.42;2.33;;;13.00;99.90;;;;;;5081460;28;20032;-83
2023/12/31 12:05:01;;;;;;;24.45;10.70;;;13.10;99.90;;;;;;5082108;28;20020;-88
2023/12/31 12:07:28;;;;;;;42.35;13.98;;;13.10;99.90;;;;;;5081088;28;20024;-86
2023/12/31 12:09:57;;;;;;;1.00;1.00;;;13.30;99.90;;;;;;5082205;28;20024;-86
2023/12/31 12:12:23;;;;;;;0.43;0.43;;;13.40;99.90;;;;;;5080585;28;20715;-82
2023/12/31 12:14:49;;;;;;;3.05;2.85;;;13.60;99.90;;;;;;5079947;28;20024;-79
2023/12/31 12:17:15;;;;;;;1.17;1.15;;;13.40;99.90;;;;;;5079805;28;20333;-79
2023/12/31 12:19:41;;;;;;;0.38;0.38;;;13.50;99.90;;;;;;5079904;28;20716;-78
2023/12/31 12:22:07;;;;;;;4.93;4.63;;;13.70;99.90;;;;;;5083600;28;20048;-77
2023/12/31 12:24:34;;;;;;;4.72;4.43;;;13.70;99.90;;;;;;5090978;28;20016;-82
2023/12/31 12:27:01;;;;;;;1.88;1.77;;;13.70;99.90;;;;;;5088257;28;20027;-84
2023/12/31 12:29:27;;;;;;;3.00;2.85;;;13.70;99.90;;;;;;5079111;28;20080;-85
2023/12/31 12:31:53;;;;;;;7.53;6.90;;;13.70;99.90;;;;;;5080891;28;20360;-83
2023/12/31 12:34:19;;;;;;;10.55;9.45;;;13.70;99.90;;;;;;5080753;28;20698;-79
2023/12/31 12:36:49;;;;;;;2.05;1.92;;;13.80;99.90;;;;;;5080375;28;20053;-83
2023/12/31 12:39:17;;;;;;;6.50;5.93;;;13.70;99.90;;;;;;5080670;28;20031;-81
2023/12/31 12:41:50;;;;;;;5.10;4.78;;;13.80;99.90;;;;;;5085660;28;20607;-84
2023/12/31 12:44:20;;;;;;;;;;;13.90;99.90;;;;;;5101594;28;20054;-82
2023/12/31 12:46:48;;;;;;;2.25;2.17;;;14.00;99.90;;;;;;5101563;28;20498;-82
2023/12/31 12:49:14;;;;;;;6.07;5.72;;;14.10;99.90;;;;;;5099386;28;20031;-82
2023/12/31 12:51:44;;;;;;;10.13;5.05;;;14.10;99.90;;;;;;5099301;28;20020;-77
2023/12/31 12:54:12;;;;;;;17.65;10.15;;;14.20;99.90;;;;;;5072936;23;20076;-77
2023/12/31 12:56:38;;;;;;;2.42;2.28;;;14.20;99.90;;;;;;5058686;28;20017;-79
2023/12/31 12:59:04;;;;;;;5.15;4.82;;;14.10;99.90;;;;;;5078381;28;20028;-77
2023/12/31 13:01:34;;;;;;;2.60;2.40;;;14.10;99.90;;;;;;5078873;28;20045;-75
2023/12/31 13:04:00;;;;;;;10.05;9.07;;;14.00;99.90;;;;;;5078522;28;20039;-81
2023/12/31 13:06:26;;;;;;;5.28;4.97;;;14.00;99.90;;;;;;5078704;28;20012;-81
2023/12/31 13:08:52;;;;;;;4.50;2.35;;;13.90;99.90;;;;;;5078474;28;20020;-82
2023/12/31 13:11:17;;;;;;;4.80;4.53;;;14.60;99.90;;;;;;5060322;28;20016;-80
2023/12/31 13:13:45;;;;;;;3.58;3.38;;;13.80;99.90;;;;;;5078539;28;20073;-80
2023/12/31 13:16:11;;;;;;;3.22;3.03;;;13.70;99.90;;;;;;5078360;28;20023;-84